PWSweather.com
Personal Weather Stations
Station Observations
WXFCSTR1
Meadowcroft Subdivision, Sumter, SC 29154

Meadowcroft SubdivisionSumter, SC 29154

Lat: 33.887835, Lon: -80.411964

Elevation: 100

Station Type: Ambient Weather WS-2080

Latest ConditionsUpdated 12:10:01 PM EDT Tuesday, Sep 23, 2014
Currently Today's Max Today's Min Today's Average
Temperature 66.2°F19.0°C 66.4°F19.1°C 61.9°F16.6°C 63.4°F17.4°C
Dew Point 61.6°F16.4°C 63.2°F17.3°C 60.3°F15.7°C 61.5°F16.4°C
Winds 2.9 mph NW4.7 kmh NW 6.1 mph NE9.8 kmh NE - 1.4 mph 2.3 kmh
Wind Gusts 7.1 mph11.4 kmh 14.3 mph23.0 kmh - -
Humidity 85% 96% 85% 94%
Pressure 30.21 in1023.0 mb 30.21 in1023.0 mb 30.06 in1017.9 mb -
Hour Temp Dew Point Humidity Winds Wind Gusts Pressure Precip Precip Rate Daily Precip Total
12:10 PM 66.2°F19.0°C 61.6°F16.4°C 85% 2.9 mph NW4.7 kmh NW 7.1 mph11.4 kmh 30.21 in1023.0 mb 0.00 in0.0 mm 0.00 in/hr0.0 mm/hr 0.00 in0.0 mm
12:00 PM 66.4°F19.1°C 61.7°F16.5°C 85% 4.7 mph E7.6 kmh E 14.3 mph23.0 kmh 30.20 in1022.7 mb 0.00 in0.0 mm 0.00 in/hr0.0 mm/hr 0.00 in0.0 mm
11:50 AM 66.4°F19.1°C 62.1°F16.7°C 86% 2.3 mph E3.7 kmh E 4.2 mph6.8 kmh 30.20 in1022.7 mb 0.00 in0.0 mm 0.00 in/hr0.0 mm/hr 0.00 in0.0 mm
11:40 AM 66.4°F19.1°C 62.4°F16.9°C 87% 2.0 mph N3.2 kmh N 6.0 mph9.7 kmh 30.21 in1023.0 mb 0.00 in0.0 mm 0.00 in/hr0.0 mm/hr 0.00 in0.0 mm
11:30 AM 66.4°F19.1°C 62.7°F17.1°C 88% 4.3 mph E6.9 kmh E 8.0 mph12.9 kmh 30.20 in1022.7 mb 0.00 in0.0 mm 0.00 in/hr0.0 mm/hr 0.00 in0.0 mm
11:20 AM 66.2°F19.0°C 62.5°F16.9°C 88% 3.6 mph E5.8 kmh E 10.1 mph16.3 kmh 30.20 in1022.7 mb 0.00 in0.0 mm 0.00 in/hr0.0 mm/hr 0.00 in0.0 mm
11:10 AM 66.0°F18.9°C 62.7°F17.1°C 89% 5.2 mph WSW8.4 kmh WSW 10.1 mph16.3 kmh 30.20 in1022.7 mb 0.00 in0.0 mm 0.00 in/hr0.0 mm/hr 0.00 in0.0 mm
11:00 AM 65.8°F18.8°C 62.8°F17.1°C 90% 2.0 mph 3.2 kmh 4.2 mph6.8 kmh 30.19 in1022.4 mb 0.00 in0.0 mm 0.00 in/hr0.0 mm/hr 0.00 in0.0 mm
10:50 AM 65.7°F18.7°C 62.6°F17.0°C 90% 2.0 mph NNE3.2 kmh NNE 7.1 mph11.4 kmh 30.19 in1022.4 mb 0.00 in0.0 mm 0.00 in/hr0.0 mm/hr 0.00 in0.0 mm
10:40 AM 65.3°F18.5°C 62.6°F17.0°C 91% 2.5 mph NE4.0 kmh NE 6.0 mph9.7 kmh 30.20 in1022.7 mb 0.00 in0.0 mm 0.00 in/hr0.0 mm/hr 0.00 in0.0 mm
10:30 AM 65.3°F18.5°C 62.9°F17.2°C 92% 2.0 mph ESE3.2 kmh ESE 5.1 mph8.2 kmh 30.20 in1022.7 mb 0.00 in0.0 mm 0.00 in/hr0.0 mm/hr 0.00 in0.0 mm
10:20 AM 65.1°F18.4°C 63.0°F17.2°C 93% 2.0 mph NE3.2 kmh NE 6.0 mph9.7 kmh 30.20 in1022.7 mb 0.00 in0.0 mm 0.00 in/hr0.0 mm/hr 0.00 in0.0 mm
10:10 AM 64.8°F18.2°C 63.0°F17.2°C 94% 0.7 mph ENE1.1 kmh ENE 4.2 mph6.8 kmh 30.20 in1022.7 mb 0.00 in0.0 mm 0.00 in/hr0.0 mm/hr 0.00 in0.0 mm
10:00 AM 64.4°F18.0°C 62.9°F17.2°C 95% 6.1 mph NE9.8 kmh NE 10.1 mph16.3 kmh 30.19 in1022.4 mb 0.00 in0.0 mm 0.00 in/hr0.0 mm/hr 0.00 in0.0 mm
09:50 AM 63.4°F17.4°C 61.6°F16.4°C 94% 1.3 mph NE2.1 kmh NE 6.0 mph9.7 kmh 30.18 in1022.0 mb 0.00 in0.0 mm 0.00 in/hr0.0 mm/hr 0.00 in0.0 mm
09:40 AM 63.0°F17.2°C 61.2°F16.2°C 94% 2.0 mph NE3.2 kmh NE 5.1 mph8.2 kmh 30.18 in1022.0 mb 0.00 in0.0 mm 0.00 in/hr0.0 mm/hr 0.00 in0.0 mm
09:30 AM 62.8°F17.1°C 61.0°F16.1°C 94% 2.1 mph E3.4 kmh E 7.1 mph11.4 kmh 30.18 in1022.0 mb 0.00 in0.0 mm 0.00 in/hr0.0 mm/hr 0.00 in0.0 mm
09:20 AM 62.6°F17.0°C 61.1°F16.2°C 95% 2.6 mph NE4.2 kmh NE 5.1 mph8.2 kmh 30.18 in1022.0 mb 0.00 in0.0 mm 0.00 in/hr0.0 mm/hr 0.00 in0.0 mm
09:10 AM 62.4°F16.9°C 61.0°F16.1°C 95% 1.8 mph S2.9 kmh S 7.1 mph11.4 kmh 30.18 in1022.0 mb 0.00 in0.0 mm 0.00 in/hr0.0 mm/hr 0.00 in0.0 mm
09:00 AM 62.2°F16.8°C 60.8°F16.0°C 95% 1.2 mph 1.9 kmh 4.2 mph6.8 kmh 30.17 in1021.7 mb 0.00 in0.0 mm 0.00 in/hr0.0 mm/hr 0.00 in0.0 mm
08:50 AM 62.1°F16.7°C 60.6°F15.9°C 95% 2.3 mph 3.7 kmh 6.0 mph9.7 kmh 30.17 in1021.7 mb 0.00 in0.0 mm 0.00 in/hr0.0 mm/hr 0.00 in0.0 mm
08:40 AM 61.9°F16.6°C 60.4°F15.8°C 95% 0.3 mph SE0.5 kmh SE 2.1 mph3.4 kmh 30.17 in1021.7 mb 0.00 in0.0 mm 0.00 in/hr0.0 mm/hr 0.00 in0.0 mm
08:30 AM 61.9°F16.6°C 60.4°F15.8°C 95% 1.4 mph SW2.3 kmh SW 6.0 mph9.7 kmh 30.17 in1021.7 mb 0.00 in0.0 mm 0.00 in/hr0.0 mm/hr 0.00 in0.0 mm
08:20 AM 61.9°F16.6°C 60.4°F15.8°C 95% 0.7 mph ESE1.1 kmh ESE 2.1 mph3.4 kmh 30.16 in1021.3 mb 0.00 in0.0 mm 0.00 in/hr0.0 mm/hr 0.00 in0.0 mm
08:10 AM 61.9°F16.6°C 60.4°F15.8°C 95% 0.9 mph E1.4 kmh E 2.1 mph3.4 kmh 30.16 in1021.3 mb 0.00 in0.0 mm 0.00 in/hr0.0 mm/hr 0.00 in0.0 mm
08:00 AM 61.9°F16.6°C 60.4°F15.8°C 95% 1.0 mph NNW1.6 kmh NNW 4.2 mph6.8 kmh 30.16 in1021.3 mb 0.00 in0.0 mm 0.00 in/hr0.0 mm/hr 0.00 in0.0 mm
07:50 AM 62.1°F16.7°C 60.3°F15.7°C 94% 1.8 mph NW2.9 kmh NW 4.2 mph6.8 kmh 30.17 in1021.7 mb 0.00 in0.0 mm 0.00 in/hr0.0 mm/hr 0.00 in0.0 mm
07:40 AM 62.1°F16.7°C 60.3°F15.7°C 94% 2.2 mph W3.5 kmh W 4.2 mph6.8 kmh 30.17 in1021.7 mb 0.00 in0.0 mm 0.00 in/hr0.0 mm/hr 0.00 in0.0 mm
07:30 AM 62.2°F16.8°C 60.5°F15.8°C 94% 2.2 mph WNW3.5 kmh WNW 5.1 mph8.2 kmh 30.16 in1021.3 mb 0.00 in0.0 mm 0.00 in/hr0.0 mm/hr 0.00 in0.0 mm
07:20 AM 62.2°F16.8°C 60.5°F15.8°C 94% 0.8 mph NW1.3 kmh NW 2.1 mph3.4 kmh 30.15 in1021.0 mb 0.00 in0.0 mm 0.00 in/hr0.0 mm/hr 0.00 in0.0 mm
07:10 AM 62.2°F16.8°C 60.5°F15.8°C 94% 0.1 mph ESE0.2 kmh ESE 4.2 mph6.8 kmh 30.14 in1020.7 mb 0.00 in0.0 mm 0.00 in/hr0.0 mm/hr 0.00 in0.0 mm
07:00 AM 62.4°F16.9°C 60.4°F15.8°C 93% 1.6 mph E2.6 kmh E 3.0 mph4.8 kmh 30.14 in1020.7 mb 0.00 in0.0 mm 0.00 in/hr0.0 mm/hr 0.00 in0.0 mm
06:50 AM 62.6°F17.0°C 60.5°F15.8°C 93% Calm Calm -- 30.13 in1020.3 mb 0.00 in0.0 mm 0.00 in/hr0.0 mm/hr 0.00 in0.0 mm
06:40 AM 62.6°F17.0°C 60.5°F15.8°C 93% 0.3 mph WNW0.5 kmh WNW 4.2 mph6.8 kmh 30.13 in1020.3 mb 0.00 in0.0 mm 0.00 in/hr0.0 mm/hr 0.00 in0.0 mm
06:30 AM 62.6°F17.0°C 60.5°F15.8°C 93% Calm Calm -- 30.13 in1020.3 mb 0.00 in0.0 mm 0.00 in/hr0.0 mm/hr 0.00 in0.0 mm
06:20 AM 62.6°F17.0°C 60.8°F16.0°C 94% 1.8 mph N2.9 kmh N 4.2 mph6.8 kmh 30.13 in1020.3 mb 0.00 in0.0 mm 0.00 in/hr0.0 mm/hr 0.00 in0.0 mm
06:10 AM 62.6°F17.0°C 60.8°F16.0°C 94% 0.2 mph SE0.3 kmh SE 3.0 mph4.8 kmh 30.13 in1020.3 mb 0.00 in0.0 mm 0.00 in/hr0.0 mm/hr 0.00 in0.0 mm
06:00 AM 62.6°F17.0°C 60.8°F16.0°C 94% 0.8 mph NNE1.3 kmh NNE 3.0 mph4.8 kmh 30.12 in1020.0 mb 0.00 in0.0 mm 0.00 in/hr0.0 mm/hr 0.00 in0.0 mm
05:50 AM 62.6°F17.0°C 60.8°F16.0°C 94% 0.9 mph NNW1.4 kmh NNW 3.0 mph4.8 kmh 30.12 in1020.0 mb 0.00 in0.0 mm 0.00 in/hr0.0 mm/hr 0.00 in0.0 mm
05:40 AM 62.6°F17.0°C 60.8°F16.0°C 94% 0.9 mph N1.4 kmh N 4.2 mph6.8 kmh 30.12 in1020.0 mb 0.00 in0.0 mm 0.00 in/hr0.0 mm/hr 0.00 in0.0 mm
05:30 AM 62.6°F17.0°C 60.8°F16.0°C 94% 0.2 mph NE0.3 kmh NE 2.1 mph3.4 kmh 30.11 in1019.6 mb 0.00 in0.0 mm 0.00 in/hr0.0 mm/hr 0.00 in0.0 mm
05:20 AM 62.6°F17.0°C 60.8°F16.0°C 94% 0.6 mph NNW1.0 kmh NNW 3.0 mph4.8 kmh 30.10 in1019.3 mb 0.00 in0.0 mm 0.00 in/hr0.0 mm/hr 0.00 in0.0 mm
05:10 AM 62.8°F17.1°C 61.0°F16.1°C 94% Calm Calm 0.9 mph1.4 kmh 30.09 in1019.0 mb 0.00 in0.0 mm 0.00 in/hr0.0 mm/hr 0.00 in0.0 mm
05:00 AM 62.8°F17.1°C 61.1°F16.2°C 94% 0.9 mph E1.4 kmh E 3.0 mph4.8 kmh 30.09 in1019.0 mb 0.00 in0.0 mm 0.00 in/hr0.0 mm/hr 0.00 in0.0 mm
04:50 AM 63.0°F17.2°C 61.2°F16.2°C 94% 0.9 mph NNW1.4 kmh NNW 2.1 mph3.4 kmh 30.09 in1019.0 mb 0.00 in0.0 mm 0.00 in/hr0.0 mm/hr 0.00 in0.0 mm
04:40 AM 63.0°F17.2°C 61.2°F16.2°C 94% 0.3 mph SW0.5 kmh SW 2.1 mph3.4 kmh 30.09 in1019.0 mb 0.00 in0.0 mm 0.00 in/hr0.0 mm/hr 0.00 in0.0 mm
04:30 AM 62.8°F17.1°C 61.3°F16.3°C 95% 3.2 mph W5.1 kmh W 5.1 mph8.2 kmh 30.08 in1018.6 mb 0.00 in0.0 mm 0.00 in/hr0.0 mm/hr 0.00 in0.0 mm
04:20 AM 62.6°F17.0°C 61.1°F16.2°C 95% 0.9 mph ESE1.4 kmh ESE 4.2 mph6.8 kmh 30.07 in1018.3 mb 0.00 in0.0 mm 0.00 in/hr0.0 mm/hr 0.00 in0.0 mm
04:10 AM 62.6°F17.0°C 61.1°F16.2°C 95% 1.4 mph E2.3 kmh E 5.1 mph8.2 kmh 30.06 in1017.9 mb 0.00 in0.0 mm 0.00 in/hr0.0 mm/hr 0.00 in0.0 mm
04:00 AM 62.6°F17.0°C 61.1°F16.2°C 95% 0.9 mph 1.4 kmh 2.1 mph3.4 kmh 30.06 in1017.9 mb 0.00 in0.0 mm 0.00 in/hr0.0 mm/hr 0.00 in0.0 mm
03:50 AM 62.6°F17.0°C 61.1°F16.2°C 95% 2.9 mph ESE4.7 kmh ESE 7.1 mph11.4 kmh 30.07 in1018.3 mb 0.00 in0.0 mm 0.00 in/hr0.0 mm/hr 0.00 in0.0 mm
03:40 AM 62.6°F17.0°C 61.1°F16.2°C 95% 0.9 mph SE1.4 kmh SE 3.0 mph4.8 kmh 30.07 in1018.3 mb 0.00 in0.0 mm 0.00 in/hr0.0 mm/hr 0.00 in0.0 mm
03:30 AM 62.6°F17.0°C 61.1°F16.2°C 95% 1.5 mph SE2.4 kmh SE 5.1 mph8.2 kmh 30.07 in1018.3 mb 0.00 in0.0 mm 0.00 in/hr0.0 mm/hr 0.00 in0.0 mm
03:20 AM 62.6°F17.0°C 61.1°F16.2°C 95% 2.2 mph SE3.5 kmh SE 7.1 mph11.4 kmh 30.07 in1018.3 mb 0.00 in0.0 mm 0.00 in/hr0.0 mm/hr 0.00 in0.0 mm
03:10 AM 62.6°F17.0°C 61.1°F16.2°C 95% 2.1 mph SE3.4 kmh SE 5.1 mph8.2 kmh 30.08 in1018.6 mb 0.00 in0.0 mm 0.00 in/hr0.0 mm/hr 0.00 in0.0 mm
03:00 AM 62.6°F17.0°C 61.1°F16.2°C 95% 0.9 mph ENE1.4 kmh ENE 2.1 mph3.4 kmh 30.08 in1018.6 mb 0.00 in0.0 mm 0.00 in/hr0.0 mm/hr 0.00 in0.0 mm
02:50 AM 62.8°F17.1°C 61.3°F16.3°C 95% 0.9 mph ESE1.4 kmh ESE 4.2 mph6.8 kmh 30.08 in1018.6 mb 0.00 in0.0 mm 0.00 in/hr0.0 mm/hr 0.00 in0.0 mm
02:40 AM 62.9°F17.2°C 61.4°F16.3°C 95% 1.3 mph E2.1 kmh E 3.0 mph4.8 kmh 30.08 in1018.6 mb 0.00 in0.0 mm 0.00 in/hr0.0 mm/hr 0.00 in0.0 mm
02:30 AM 63.0°F17.2°C 61.5°F16.4°C 95% 1.5 mph SSE2.4 kmh SSE 4.2 mph6.8 kmh 30.09 in1019.0 mb 0.00 in0.0 mm 0.00 in/hr0.0 mm/hr 0.00 in0.0 mm
02:20 AM 63.1°F17.3°C 61.7°F16.5°C 95% 2.0 mph NE3.2 kmh NE 4.2 mph6.8 kmh 30.09 in1019.0 mb 0.00 in0.0 mm 0.00 in/hr0.0 mm/hr 0.00 in0.0 mm
02:10 AM 63.3°F17.4°C 61.9°F16.6°C 95% 0.9 mph SSE1.4 kmh SSE 2.1 mph3.4 kmh 30.09 in1019.0 mb 0.00 in0.0 mm 0.00 in/hr0.0 mm/hr 0.00 in0.0 mm
02:00 AM 63.3°F17.4°C 61.9°F16.6°C 95% Calm Calm 0.9 mph1.4 kmh 30.09 in1019.0 mb 0.00 in0.0 mm 0.00 in/hr0.0 mm/hr 0.00 in0.0 mm
01:50 AM 63.5°F17.5°C 62.3°F16.8°C 96% 1.5 mph ENE2.4 kmh ENE 4.2 mph6.8 kmh 30.10 in1019.3 mb 0.00 in0.0 mm 0.00 in/hr0.0 mm/hr 0.00 in0.0 mm
01:40 AM 63.7°F17.6°C 62.5°F16.9°C 96% Calm Calm 0.9 mph1.4 kmh 30.11 in1019.6 mb 0.00 in0.0 mm 0.00 in/hr0.0 mm/hr 0.00 in0.0 mm
01:30 AM 63.8°F17.7°C 62.6°F17.0°C 96% Calm Calm 0.9 mph1.4 kmh 30.11 in1019.6 mb 0.00 in0.0 mm 0.00 in/hr0.0 mm/hr 0.00 in0.0 mm
01:20 AM 63.9°F17.7°C 62.7°F17.1°C 96% Calm Calm -- 30.11 in1019.6 mb 0.00 in0.0 mm 0.00 in/hr0.0 mm/hr 0.00 in0.0 mm
01:10 AM 63.9°F17.7°C 62.4°F16.9°C 95% 2.0 mph E3.2 kmh E 3.0 mph4.8 kmh 30.11 in1019.6 mb 0.00 in0.0 mm 0.00 in/hr0.0 mm/hr 0.00 in0.0 mm
01:00 AM 63.9°F17.7°C 62.4°F16.9°C 95% Calm Calm -- 30.13 in1020.3 mb 0.00 in0.0 mm 0.00 in/hr0.0 mm/hr 0.00 in0.0 mm
12:50 AM 63.9°F17.7°C 62.4°F16.9°C 95% Calm Calm -- 30.12 in1020.0 mb 0.00 in0.0 mm 0.00 in/hr0.0 mm/hr 0.00 in0.0 mm
12:40 AM 64.0°F17.8°C 62.6°F17.0°C 95% Calm Calm -- 30.12 in1020.0 mb 0.00 in0.0 mm 0.00 in/hr0.0 mm/hr 0.00 in0.0 mm
12:30 AM 64.1°F17.8°C 62.7°F17.1°C 95% Calm Calm -- 30.12 in1020.0 mb 0.00 in0.0 mm 0.00 in/hr0.0 mm/hr 0.00 in0.0 mm
12:20 AM 64.2°F17.9°C 62.8°F17.1°C 95% 1.0 mph WSW1.6 kmh WSW 3.0 mph4.8 kmh 30.12 in1020.0 mb 0.00 in0.0 mm 0.00 in/hr0.0 mm/hr 0.00 in0.0 mm
12:10 AM 64.4°F18.0°C 63.2°F17.3°C 96% 0.4 mph WSW0.6 kmh WSW 2.1 mph3.4 kmh 30.11 in1019.6 mb 0.00 in0.0 mm 0.00 in/hr0.0 mm/hr 0.00 in0.0 mm
12:00 AM 64.4°F18.0°C 63.2°F17.3°C 96% 0.2 mph ESE0.3 kmh ESE 3.0 mph4.8 kmh 30.11 in1019.6 mb 0.00 in0.0 mm 0.00 in/hr0.0 mm/hr 0.00 in0.0 mm